createdAt,value
2023-05-24T00:02:20.207Z,18.80
2023-05-24T00:04:50.134Z,23.17
2023-05-24T00:07:18.860Z,15.03
2023-05-24T00:09:47.719Z,28.60
2023-05-24T00:12:16.815Z,24.40
2023-05-24T00:14:45.396Z,24.30
2023-05-24T00:17:14.135Z,24.77
2023-05-24T00:19:42.805Z,21.93
2023-05-24T00:22:14.078Z,21.70
2023-05-24T00:24:42.679Z,20.70
2023-05-24T00:27:11.947Z,23.77
2023-05-24T00:29:40.876Z,27.33
2023-05-24T00:32:09.353Z,23.77
2023-05-24T00:34:37.818Z,21.40
2023-05-24T00:37:07.339Z,19.27
2023-05-24T00:39:37.146Z,16.60
2023-05-24T00:42:06.030Z,18.03
2023-05-24T00:44:34.499Z,26.07
2023-05-24T00:47:03.136Z,20.97
2023-05-24T00:49:31.910Z,24.13
2023-05-24T00:52:01.798Z,27.90
2023-05-24T00:54:30.732Z,22.33
2023-05-24T00:57:00.681Z,24.33
2023-05-24T00:59:29.742Z,20.20
2023-05-24T01:01:58.270Z,22.40
2023-05-24T01:04:28.136Z,18.77
2023-05-24T01:07:10.152Z,25.27
2023-05-24T01:09:52.413Z,16.20
2023-05-24T01:12:33.086Z,19.57
2023-05-24T01:15:10.680Z,21.90
2023-05-24T01:17:48.538Z,21.67
2023-05-24T01:20:20.802Z,19.27
2023-05-24T01:23:08.425Z,18.80
2023-05-24T01:25:49.535Z,23.23
2023-05-24T01:28:20.233Z,25.70
2023-05-24T01:30:49.213Z,22.90
2023-05-24T01:33:18.032Z,20.13
2023-05-24T01:35:46.445Z,16.83
2023-05-24T01:38:15.906Z,17.80
2023-05-24T01:40:45.704Z,20.37
2023-05-24T01:43:19.775Z,20.30
2023-05-24T01:45:57.045Z,20.10
2023-05-24T01:48:35.459Z,21.83
2023-05-24T01:51:08.502Z,18.40
2023-05-24T01:53:42.805Z,17.13
2023-05-24T01:56:12.838Z,17.03
2023-05-24T01:58:45.172Z,15.00
2023-05-24T02:01:14.363Z,17.93
2023-05-24T02:03:43.212Z,18.77
2023-05-24T02:06:11.824Z,19.33
2023-05-24T02:08:40.224Z,25.97
2023-05-24T02:11:08.946Z,16.60
2023-05-24T02:13:37.492Z,18.93
2023-05-24T02:16:07.446Z,17.60
2023-05-24T02:18:35.951Z,22.27
2023-05-24T02:21:04.987Z,16.70
2023-05-24T02:23:33.729Z,16.10
2023-05-24T02:26:02.559Z,17.20
2023-05-24T02:28:32.443Z,15.97
2023-05-24T02:31:01.466Z,22.70
2023-05-24T02:33:31.105Z,14.37
2023-05-24T02:35:59.534Z,15.60
2023-05-24T02:38:27.894Z,18.50
2023-05-24T02:40:56.363Z,20.47
2023-05-24T02:43:24.931Z,21.90
2023-05-24T02:45:53.453Z,19.03
2023-05-24T02:48:22.031Z,15.00
2023-05-24T02:50:51.942Z,21.80
2023-05-24T02:53:21.689Z,18.50
2023-05-24T02:55:51.208Z,19.37
2023-05-24T02:58:19.764Z,21.60
2023-05-24T03:00:48.468Z,19.30
2023-05-24T03:03:17.204Z,19.00
2023-05-24T03:05:45.795Z,21.03
2023-05-24T03:08:15.628Z,17.30
2023-05-24T03:10:44.677Z,20.20
2023-05-24T03:13:13.104Z,21.27
2023-05-24T03:15:42.934Z,19.30
2023-05-24T03:18:11.577Z,21.70
2023-05-24T03:20:40.091Z,19.77
2023-05-24T03:23:09.644Z,19.10
2023-05-24T03:25:39.595Z,19.27
2023-05-24T03:28:08.292Z,20.43
2023-05-24T03:30:37.079Z,17.90
2023-05-24T03:33:05.723Z,19.23
2023-05-24T03:35:34.181Z,16.90
2023-05-24T03:38:02.587Z,15.90
2023-05-24T03:40:33.569Z,22.40
2023-05-24T03:43:04.634Z,20.27
2023-05-24T03:45:39.148Z,19.87
2023-05-24T03:48:08.689Z,20.67
2023-05-24T03:50:37.420Z,22.10
2023-05-24T03:53:06.201Z,21.20
2023-05-24T03:55:34.748Z,23.20
2023-05-24T03:58:04.399Z,25.23
2023-05-24T04:00:32.898Z,18.03
2023-05-24T04:03:02.136Z,22.83
2023-05-24T04:05:30.825Z,24.27
2023-05-24T04:07:59.273Z,23.70
2023-05-24T04:10:27.974Z,25.23
2023-05-24T04:12:57.281Z,30.37
2023-05-24T04:15:26.980Z,27.37
2023-05-24T04:17:56.025Z,26.40
2023-05-24T04:20:26.008Z,21.30
2023-05-24T04:22:56.074Z,19.43
2023-05-24T04:25:24.762Z,22.07
2023-05-24T04:27:53.612Z,18.47
2023-05-24T04:30:22.655Z,25.07
2023-05-24T04:32:52.787Z,24.67
2023-05-24T04:35:21.319Z,26.43
2023-05-24T04:37:50.407Z,20.67
2023-05-24T04:40:20.729Z,31.00
2023-05-24T04:42:49.712Z,22.60
2023-05-24T04:45:18.025Z,24.40
2023-05-24T04:47:46.589Z,30.23
2023-05-24T04:50:16.828Z,27.83
2023-05-24T04:52:45.238Z,25.37
2023-05-24T04:55:13.737Z,27.90
2023-05-24T04:57:42.257Z,31.27
2023-05-24T05:00:12.144Z,27.53
2023-05-24T05:02:40.532Z,24.23
2023-05-24T05:05:09.428Z,36.93
2023-05-24T05:07:40.373Z,27.90
2023-05-24T05:10:10.037Z,27.77
2023-05-24T05:12:38.787Z,18.67
2023-05-24T05:15:08.287Z,31.97
2023-05-24T05:17:36.830Z,23.83
2023-05-24T05:20:06.036Z,24.93
2023-05-24T05:22:34.627Z,31.30
2023-05-24T05:25:04.708Z,27.90
2023-05-24T05:27:33.164Z,34.17
2023-05-24T05:30:02.020Z,21.97
2023-05-24T05:32:30.888Z,35.43
2023-05-24T05:34:59.387Z,29.20
2023-05-24T05:37:27.832Z,21.67
2023-05-24T05:39:56.846Z,28.07
2023-05-24T05:42:26.679Z,20.57
2023-05-24T05:44:55.235Z,20.27
2023-05-24T05:47:23.699Z,27.53
2023-05-24T05:49:52.461Z,23.87
2023-05-24T05:52:20.894Z,20.93
2023-05-24T05:54:49.473Z,23.83
2023-05-24T05:57:19.707Z,24.43
2023-05-24T05:59:49.445Z,33.27
2023-05-24T06:02:18.935Z,23.60
2023-05-24T06:04:48.077Z,28.77
2023-05-24T06:07:16.702Z,23.47
2023-05-24T06:09:45.534Z,19.37
2023-05-24T06:12:14.070Z,21.63
2023-05-24T06:14:42.626Z,26.63
2023-05-24T06:17:12.558Z,23.60
2023-05-24T06:19:41.396Z,20.50
2023-05-24T06:22:10.088Z,22.10
2023-05-24T06:24:39.590Z,20.27
2023-05-24T06:27:08.124Z,19.87
2023-05-24T06:29:36.999Z,26.17
2023-05-24T06:32:06.148Z,18.70
2023-05-24T06:34:35.970Z,24.83
2023-05-24T06:37:04.446Z,17.57
2023-05-24T06:39:32.905Z,22.47
2023-05-24T06:42:01.963Z,17.13
2023-05-24T06:44:34.701Z,22.13
2023-05-24T06:47:03.276Z,29.90
2023-05-24T06:49:32.136Z,25.93
2023-05-24T06:52:01.748Z,19.03
2023-05-24T06:54:30.304Z,26.07
2023-05-24T06:56:58.995Z,33.43
2023-05-24T06:59:28.236Z,27.53
2023-05-24T07:01:59.399Z,26.97
2023-05-24T07:04:29.653Z,26.13
2023-05-24T07:06:58.609Z,25.00
2023-05-24T07:09:28.623Z,31.53
2023-05-24T07:11:57.128Z,24.30
2023-05-24T07:14:26.118Z,24.30
2023-05-24T07:16:57.576Z,22.93
2023-05-24T07:19:29.517Z,32.93
2023-05-24T07:21:58.478Z,16.93
2023-05-24T07:24:28.339Z,10.90
2023-05-24T07:26:57.864Z,13.93
2023-05-24T07:29:27.111Z,19.57
2023-05-24T07:31:58.146Z,16.33
2023-05-24T07:34:30.025Z,16.67
2023-05-24T07:37:00.647Z,17.93
2023-05-24T07:39:30.710Z,15.50
2023-05-24T07:41:59.339Z,14.70
2023-05-24T07:44:27.947Z,7.73
2023-05-24T07:46:57.154Z,22.67
2023-05-24T07:49:25.951Z,22.73
2023-05-24T07:51:56.974Z,19.30
2023-05-24T07:54:25.568Z,16.87
2023-05-24T07:56:55.197Z,13.70
2023-05-24T07:59:23.903Z,14.07
2023-05-24T08:01:52.581Z,13.00
2023-05-24T08:04:21.697Z,12.97
2023-05-24T08:06:50.286Z,11.47
2023-05-24T08:09:19.208Z,18.23
2023-05-24T08:11:47.613Z,28.47
2023-05-24T08:14:17.377Z,21.80
2023-05-24T08:16:45.997Z,17.60
2023-05-24T08:19:14.917Z,16.53
2023-05-24T08:21:43.744Z,14.60
2023-05-24T08:24:12.412Z,11.50
2023-05-24T08:26:41.249Z,11.80
2023-05-24T08:29:09.936Z,12.30
2023-05-24T08:31:39.786Z,14.27
2023-05-24T08:34:08.652Z,14.67
2023-05-24T08:36:37.495Z,14.00
2023-05-24T08:39:06.840Z,11.80
2023-05-24T08:41:37.510Z,19.07
2023-05-24T08:44:07.926Z,12.67
2023-05-24T08:46:37.323Z,16.13
2023-05-24T08:49:09.300Z,12.77
2023-05-24T08:51:38.941Z,19.97
2023-05-24T08:54:12.175Z,13.70
2023-05-24T08:56:42.116Z,13.35
2023-05-24T08:59:13.592Z,13.93
2023-05-24T09:01:42.852Z,18.42
2023-05-24T09:04:13.073Z,12.05
2023-05-24T09:06:41.501Z,9.53
2023-05-24T09:09:11.369Z,10.13
2023-05-24T09:11:42.314Z,12.95
2023-05-24T09:14:10.796Z,11.52
2023-05-24T09:16:39.591Z,9.65
2023-05-24T09:19:08.154Z,9.95
2023-05-24T09:21:39.509Z,10.27
2023-05-24T09:24:10.040Z,14.30
2023-05-24T09:26:38.439Z,10.40
2023-05-24T09:29:09.353Z,8.50
2023-05-24T09:31:40.125Z,11.43
2023-05-24T09:34:15.858Z,9.32
2023-05-24T09:36:48.525Z,7.10
2023-05-24T09:39:20.651Z,8.10
2023-05-24T09:41:57.353Z,10.00
2023-05-24T09:44:28.141Z,13.63
2023-05-24T09:47:05.162Z,7.95
2023-05-24T09:49:34.071Z,7.45
2023-05-24T09:52:04.048Z,7.82
2023-05-24T09:54:34.058Z,6.03
2023-05-24T09:57:04.936Z,3.47
2023-05-24T09:59:35.395Z,12.00
2023-05-24T10:02:11.641Z,11.35
2023-05-24T10:04:40.778Z,5.72
2023-05-24T10:07:12.223Z,2.85
2023-05-24T10:09:41.526Z,8.15
2023-05-24T10:12:10.559Z,5.85
2023-05-24T10:14:39.929Z,3.15
2023-05-24T10:17:09.215Z,4.97
2023-05-24T10:19:39.232Z,4.28
2023-05-24T10:22:11.292Z,3.63
2023-05-24T10:24:44.992Z,3.95
2023-05-24T10:27:17.603Z,3.22
2023-05-24T10:29:52.807Z,5.13
2023-05-24T10:32:23.185Z,7.97
2023-05-24T10:34:54.097Z,4.72
2023-05-24T10:37:26.486Z,5.70
2023-05-24T10:39:54.951Z,2.88
2023-05-24T10:42:24.089Z,1.98
2023-05-24T10:44:52.834Z,6.75
2023-05-24T10:47:22.394Z,4.55
2023-05-24T10:49:52.870Z,3.38
2023-05-24T10:52:21.692Z,2.13
2023-05-24T10:55:09.497Z,4.80
2023-05-24T10:57:38.545Z,2.85
2023-05-24T11:03:04.435Z,7.05
2023-05-24T11:05:37.004Z,7.20
2023-05-24T11:08:09.495Z,8.75
2023-05-24T11:10:39.918Z,5.20
2023-05-24T11:13:11.003Z,7.22
2023-05-24T11:15:39.834Z,7.32
2023-05-24T11:18:17.704Z,8.90
2023-05-24T11:20:46.929Z,7.05
2023-05-24T11:23:16.780Z,8.70
2023-05-24T11:25:47.733Z,8.05
2023-05-24T11:28:16.445Z,7.20
2023-05-24T11:30:45.909Z,6.72
2023-05-24T11:33:18.842Z,6.95
2023-05-24T11:35:47.579Z,7.55
2023-05-24T11:38:17.005Z,6.30
2023-05-24T11:40:47.777Z,7.18
2023-05-24T11:43:17.758Z,8.18
2023-05-24T11:45:48.798Z,4.15
2023-05-24T11:48:18.009Z,4.82
2023-05-24T11:50:49.661Z,8.85
2023-05-24T11:53:20.813Z,7.07
2023-05-24T11:55:51.640Z,3.60
2023-05-24T11:58:24.668Z,6.70
2023-05-24T12:00:53.682Z,8.90
2023-05-24T12:03:22.298Z,8.00
2023-05-24T12:05:51.426Z,8.75
2023-05-24T12:08:20.483Z,10.45
2023-05-24T12:10:52.072Z,7.70
2023-05-24T12:13:23.777Z,6.88
2023-05-24T12:15:55.823Z,7.82
2023-05-24T12:18:26.106Z,7.35
2023-05-24T12:20:55.199Z,8.00
2023-05-24T12:23:25.678Z,5.80
2023-05-24T12:25:59.855Z,8.75
2023-05-24T12:28:28.678Z,7.47
2023-05-24T12:30:57.566Z,9.07
2023-05-24T12:33:26.134Z,4.97
2023-05-24T12:35:56.358Z,8.90
2023-05-24T12:38:26.215Z,6.68
2023-05-24T12:41:11.241Z,5.75
2023-05-24T12:43:40.988Z,5.18
2023-05-24T12:46:09.600Z,5.25
2023-05-24T12:48:38.008Z,5.65
2023-05-24T12:51:08.270Z,7.05
2023-05-24T12:53:36.752Z,6.22
2023-05-24T12:56:06.974Z,6.72
2023-05-24T12:58:35.554Z,4.72
2023-05-24T13:01:04.325Z,5.20
2023-05-24T13:03:32.910Z,5.63
2023-05-24T13:06:01.632Z,5.50
2023-05-24T13:08:30.207Z,6.78
2023-05-24T13:10:58.820Z,3.13
2023-05-24T13:13:29.024Z,7.68
2023-05-24T13:15:57.656Z,7.53
2023-05-24T13:18:26.475Z,6.22
2023-05-24T13:20:55.103Z,6.10
2023-05-24T13:23:24.330Z,7.40
2023-05-24T13:25:52.762Z,5.70
2023-05-24T13:28:22.222Z,4.85
2023-05-24T13:30:52.165Z,8.70
2023-05-24T13:33:20.769Z,6.47
2023-05-24T13:35:49.763Z,6.30
2023-05-24T13:38:18.395Z,9.70
2023-05-24T13:40:47.329Z,7.47
2023-05-24T13:43:16.155Z,7.25
2023-05-24T13:45:45.575Z,9.23
2023-05-24T13:48:15.513Z,9.52
2023-05-24T13:50:44.922Z,6.50
2023-05-24T13:53:13.772Z,5.60
2023-05-24T13:55:42.182Z,6.13
2023-05-24T13:58:10.702Z,7.22
2023-05-24T14:00:39.166Z,9.70
2023-05-24T14:03:07.690Z,5.15
2023-05-24T14:05:37.974Z,5.63
2023-05-24T14:08:07.107Z,9.02
2023-05-24T14:10:36.983Z,11.02
2023-05-24T14:13:29.112Z,10.15
2023-05-24T14:15:54.344Z,10.55
2023-05-24T14:18:23.198Z,8.57
2023-05-24T14:20:52.871Z,12.88
2023-05-24T14:23:21.420Z,11.90
2023-05-24T14:25:51.915Z,10.10
2023-05-24T14:28:20.605Z,11.00
2023-05-24T14:30:49.213Z,7.97
2023-05-24T14:33:17.713Z,11.68
2023-05-24T14:35:46.651Z,10.65
2023-05-24T14:38:16.804Z,12.38
2023-05-24T14:40:47.803Z,12.55
2023-05-24T14:43:16.482Z,8.90
2023-05-24T14:45:45.249Z,10.30
2023-05-24T14:48:15.082Z,10.13
2023-05-24T14:50:44.206Z,10.35
2023-05-24T14:53:13.087Z,9.30
2023-05-24T14:55:44.376Z,11.23
2023-05-24T14:58:14.144Z,10.05
2023-05-24T15:00:43.986Z,11.90
2023-05-24T15:03:14.557Z,10.98
2023-05-24T15:05:43.675Z,8.65
2023-05-24T15:08:12.343Z,8.65
2023-05-24T15:10:45.267Z,10.32
2023-05-24T15:13:14.533Z,9.23
2023-05-24T15:15:43.323Z,11.35
2023-05-24T15:18:11.889Z,14.10
2023-05-24T15:20:41.337Z,12.95
2023-05-24T15:23:10.865Z,12.07
2023-05-24T15:25:39.558Z,12.55
2023-05-24T15:28:10.685Z,10.73
2023-05-24T15:30:39.502Z,12.88
2023-05-24T15:33:08.127Z,13.65
2023-05-24T15:35:36.578Z,12.02
2023-05-24T15:38:05.175Z,10.57
2023-05-24T15:40:33.955Z,14.90
2023-05-24T15:43:02.394Z,9.43
2023-05-24T15:45:32.164Z,8.43
2023-05-24T15:48:00.651Z,11.88
2023-05-24T15:50:46.588Z,10.80
2023-05-24T15:53:19.768Z,13.27
2023-05-24T15:55:49.687Z,20.17
2023-05-24T15:58:18.501Z,12.20
2023-05-24T16:00:48.168Z,9.27
2023-05-24T16:03:16.708Z,11.23
2023-05-24T16:05:45.377Z,12.90
2023-05-24T16:08:16.161Z,16.08
2023-05-24T16:10:45.030Z,12.10
2023-05-24T16:13:13.613Z,13.65
2023-05-24T16:15:42.684Z,16.10
2023-05-24T16:18:18.026Z,12.18
2023-05-24T16:20:47.028Z,10.48
2023-05-24T16:23:15.390Z,15.70
2023-05-24T16:25:45.271Z,7.53
2023-05-24T16:28:13.756Z,12.00
2023-05-24T16:30:42.748Z,16.85
2023-05-24T16:33:12.512Z,15.88
2023-05-24T16:35:41.010Z,10.65
2023-05-24T16:38:09.428Z,13.95
2023-05-24T16:40:37.897Z,8.95
2023-05-24T16:43:06.436Z,10.45
2023-05-24T16:45:34.946Z,10.45
2023-05-24T16:48:04.012Z,11.88
2023-05-24T16:50:35.651Z,10.40
2023-05-24T16:53:06.522Z,13.95
2023-05-24T16:55:35.360Z,13.40
2023-05-24T16:58:04.138Z,14.00
2023-05-24T17:00:32.883Z,7.50
2023-05-24T17:03:01.701Z,11.68
2023-05-24T17:05:30.212Z,12.10
2023-05-24T17:07:59.998Z,11.45
2023-05-24T17:10:29.067Z,18.30
2023-05-24T17:12:57.492Z,7.60
2023-05-24T17:15:25.946Z,12.27
2023-05-24T17:17:55.596Z,10.93
2023-05-24T17:20:24.232Z,10.00
2023-05-24T17:22:52.797Z,9.10
2023-05-24T17:25:22.699Z,11.32
2023-05-24T17:27:51.474Z,13.95
2023-05-24T17:30:20.508Z,11.02
2023-05-24T17:32:48.960Z,14.70
2023-05-24T17:35:17.607Z,14.02
2023-05-24T17:37:46.104Z,10.43
2023-05-24T17:40:14.969Z,11.90
2023-05-24T17:42:44.637Z,7.80
2023-05-24T17:45:13.154Z,11.43
2023-05-24T17:47:41.630Z,9.15
2023-05-24T17:50:11.354Z,10.02
2023-05-24T17:52:39.728Z,6.95
2023-05-24T17:55:09.469Z,12.30
2023-05-24T17:57:38.001Z,13.18
2023-05-24T18:00:09.263Z,8.93
2023-05-24T18:02:37.733Z,12.27
2023-05-24T18:05:06.742Z,9.20
2023-05-24T18:07:36.403Z,11.48
2023-05-24T18:10:05.423Z,13.23
2023-05-24T18:12:34.361Z,14.45
2023-05-24T18:15:03.126Z,10.73
2023-05-24T18:17:33.047Z,8.82
2023-05-24T18:20:01.947Z,12.10
2023-05-24T18:22:30.492Z,13.02
2023-05-24T18:24:59.598Z,9.80
2023-05-24T18:27:28.289Z,10.02
2023-05-24T18:29:57.199Z,10.90
2023-05-24T18:32:25.686Z,10.75
2023-05-24T18:34:57.010Z,10.55
2023-05-24T18:37:25.712Z,16.33
2023-05-24T18:39:54.117Z,12.18
2023-05-24T18:42:22.467Z,10.27
2023-05-24T18:44:51.165Z,7.95
2023-05-24T18:47:19.721Z,11.50
2023-05-24T18:49:48.539Z,14.05
2023-05-24T18:52:18.677Z,12.50
2023-05-24T18:54:47.131Z,10.30
2023-05-24T18:57:15.679Z,11.82
2023-05-24T18:59:44.394Z,17.17
2023-05-24T19:02:12.990Z,11.52
2023-05-24T19:04:41.491Z,9.75
2023-05-24T19:07:10.132Z,11.65
2023-05-24T19:09:40.103Z,10.82
2023-05-24T19:12:10.975Z,10.70
2023-05-24T19:14:39.643Z,10.48
2023-05-24T19:17:08.226Z,9.85
2023-05-24T19:19:36.777Z,16.33
2023-05-24T19:22:05.347Z,11.60
2023-05-24T19:24:33.846Z,10.32
2023-05-24T19:27:03.534Z,15.13
2023-05-24T19:29:32.419Z,16.60
2023-05-24T19:32:00.926Z,18.23
2023-05-24T19:34:31.940Z,12.05
2023-05-24T19:37:00.306Z,13.40
2023-05-24T19:39:29.392Z,13.27
2023-05-24T19:41:57.959Z,14.65
2023-05-24T19:44:27.512Z,16.42
2023-05-24T19:46:56.001Z,13.25
2023-05-24T19:49:24.822Z,16.65
2023-05-24T19:51:53.267Z,10.95
2023-05-24T19:54:21.728Z,18.27
2023-05-24T19:56:51.947Z,14.53
2023-05-24T19:59:20.705Z,15.10
2023-05-24T20:01:50.569Z,17.90
2023-05-24T20:04:19.133Z,16.52
2023-05-24T20:06:47.652Z,17.87
2023-05-24T20:09:18.820Z,12.93
2023-05-24T20:11:48.891Z,14.77
2023-05-24T20:14:18.090Z,21.92
2023-05-24T20:16:46.726Z,15.77
2023-05-24T20:19:16.823Z,17.58
2023-05-24T20:21:45.312Z,16.23
2023-05-24T20:24:13.832Z,14.50
2023-05-24T20:26:42.405Z,16.47
2023-05-24T20:29:10.962Z,18.73
2023-05-24T20:31:39.488Z,18.37
2023-05-24T20:34:10.699Z,16.35
2023-05-24T20:36:43.387Z,11.70
2023-05-24T20:39:12.292Z,20.93
2023-05-24T20:41:40.843Z,16.30
2023-05-24T20:44:09.244Z,15.52
2023-05-24T20:46:37.899Z,17.52
2023-05-24T20:49:07.557Z,18.07
2023-05-24T20:51:36.504Z,14.82
2023-05-24T20:54:07.192Z,14.10
2023-05-24T20:56:36.003Z,14.83
2023-05-24T20:59:04.926Z,18.40
2023-05-24T21:01:33.371Z,15.30
2023-05-24T21:04:02.201Z,16.93
2023-05-24T21:06:33.785Z,17.70
2023-05-24T21:09:03.678Z,17.63
2023-05-24T21:11:33.644Z,18.33
2023-05-24T21:14:02.143Z,14.67
2023-05-24T21:16:30.743Z,18.20
2023-05-24T21:19:01.266Z,17.10
2023-05-24T21:21:29.954Z,15.10
2023-05-24T21:23:58.853Z,15.37
2023-05-24T21:26:27.612Z,15.03
2023-05-24T21:28:57.458Z,18.60
2023-05-24T21:31:28.397Z,13.33
2023-05-24T21:33:58.298Z,17.73
2023-05-24T21:36:26.855Z,19.30
2023-05-24T21:38:56.937Z,14.37
2023-05-24T21:41:26.836Z,12.93
2023-05-24T21:43:56.612Z,16.03
2023-05-24T21:46:25.057Z,15.93
2023-05-24T21:48:53.605Z,15.33
2023-05-24T21:51:22.435Z,15.57
2023-05-24T21:53:50.948Z,22.55
2023-05-24T21:56:19.390Z,16.43
2023-05-24T21:58:47.914Z,18.17
2023-05-24T22:01:17.929Z,18.77
2023-05-24T22:03:46.573Z,18.93
2023-05-24T22:06:15.002Z,20.27
2023-05-24T22:08:43.493Z,21.60
2023-05-24T22:11:11.960Z,17.33
2023-05-24T22:13:40.495Z,9.03
2023-05-24T22:16:09.203Z,16.90
2023-05-24T22:18:38.906Z,18.40
2023-05-24T22:21:07.660Z,18.43
2023-05-24T22:23:36.169Z,17.83
2023-05-24T22:26:04.647Z,17.33
2023-05-24T22:28:49.683Z,17.67
2023-05-24T22:31:18.488Z,18.73
2023-05-24T22:33:49.365Z,19.53
2023-05-24T22:36:18.894Z,23.17
2023-05-24T22:38:47.477Z,17.40
2023-05-24T22:41:16.293Z,16.43
2023-05-24T22:43:44.878Z,18.87
2023-05-24T22:46:13.402Z,18.17
2023-05-24T22:48:41.944Z,18.50
2023-05-24T22:51:12.552Z,23.07
2023-05-24T22:53:41.099Z,17.47
2023-05-24T22:56:10.513Z,13.63
2023-05-24T22:58:39.365Z,14.07
2023-05-24T23:01:08.081Z,25.27
2023-05-24T23:03:36.892Z,18.17
2023-05-24T23:06:05.698Z,18.33
2023-05-24T23:08:36.073Z,17.07
2023-05-24T23:11:10.766Z,19.17
2023-05-24T23:13:42.298Z,20.43
2023-05-24T23:16:12.521Z,20.70
2023-05-24T23:18:43.036Z,14.13
2023-05-24T23:21:11.943Z,17.83
2023-05-24T23:23:42.142Z,19.60
2023-05-24T23:26:10.682Z,18.90
2023-05-24T23:28:39.121Z,18.20
2023-05-24T23:31:07.726Z,16.10
2023-05-24T23:33:36.291Z,21.00
2023-05-24T23:36:04.810Z,22.93
2023-05-24T23:38:33.359Z,21.50
2023-05-24T23:41:03.362Z,26.27
2023-05-24T23:43:32.185Z,14.93
2023-05-24T23:46:00.640Z,17.53
2023-05-24T23:48:29.097Z,21.27
2023-05-24T23:50:57.875Z,20.77
2023-05-24T23:53:26.442Z,20.10
2023-05-24T23:55:54.948Z,17.93
2023-05-24T23:58:24.999Z,20.60
